sensor_id;sensor_type;location;lat;lon;timestamp;temperature;humidity
28677;DHT22;15858;48.338;11.078;2023-06-14T00:00:56;13.50;95.90
28677;DHT22;15858;48.338;11.078;2023-06-14T00:03:22;13.50;96.20
28677;DHT22;15858;48.338;11.078;2023-06-14T00:05:49;13.50;96.30
28677;DHT22;15858;48.338;11.078;2023-06-14T00:08:16;13.40;96.80
28677;DHT22;15858;48.338;11.078;2023-06-14T00:10:42;13.40;97.10
28677;DHT22;15858;48.338;11.078;2023-06-14T00:13:09;13.40;97.30
28677;DHT22;15858;48.338;11.078;2023-06-14T00:15:36;13.40;97.30
28677;DHT22;15858;48.338;11.078;2023-06-14T00:18:04;13.30;97.40
28677;DHT22;15858;48.338;11.078;2023-06-14T00:20:31;13.30;97.40
28677;DHT22;15858;48.338;11.078;2023-06-14T00:22:59;13.20;97.80
28677;DHT22;15858;48.338;11.078;2023-06-14T00:25:27;13.30;98.20
28677;DHT22;15858;48.338;11.078;2023-06-14T00:27:56;13.30;98.40
28677;DHT22;15858;48.338;11.078;2023-06-14T00:30:24;13.30;98.50
28677;DHT22;15858;48.338;11.078;2023-06-14T00:32:50;13.30;98.80
28677;DHT22;15858;48.338;11.078;2023-06-14T00:35:17;13.30;98.80
28677;DHT22;15858;48.338;11.078;2023-06-14T00:37:44;13.10;98.80
28677;DHT22;15858;48.338;11.078;2023-06-14T00:40:11;13.00;99.10
28677;DHT22;15858;48.338;11.078;2023-06-14T00:42:37;13.00;99.40
28677;DHT22;15858;48.338;11.078;2023-06-14T00:45:04;13.00;99.60
28677;DHT22;15858;48.338;11.078;2023-06-14T00:47:31;12.90;99.90
28677;DHT22;15858;48.338;11.078;2023-06-14T00:49:58;12.80;99.90
28677;DHT22;15858;48.338;11.078;2023-06-14T00:52:26;12.70;99.90
28677;DHT22;15858;48.338;11.078;2023-06-14T00:54:53;12.60;99.90
28677;DHT22;15858;48.338;11.078;2023-06-14T00:57:19;12.60;99.90
28677;DHT22;15858;48.338;11.078;2023-06-14T00:59:48;12.70;99.90
28677;DHT22;15858;48.338;11.078;2023-06-14T01:02:15;12.60;99.90
28677;DHT22;15858;48.338;11.078;2023-06-14T01:04:43;12.60;99.90
28677;DHT22;15858;48.338;11.078;2023-06-14T01:10:33;12.70;99.90
28677;DHT22;15858;48.338;11.078;2023-06-14T01:15:39;12.60;99.90
28677;DHT22;15858;48.338;11.078;2023-06-14T01:18:07;12.60;99.90
28677;DHT22;15858;48.338;11.078;2023-06-14T01:20:34;12.60;99.90
28677;DHT22;15858;48.338;11.078;2023-06-14T01:23:02;12.50;99.90
28677;DHT22;15858;48.338;11.078;2023-06-14T01:25:29;12.50;99.90
28677;DHT22;15858;48.338;11.078;2023-06-14T01:27:58;12.50;99.90
28677;DHT22;15858;48.338;11.078;2023-06-14T01:30:26;12.50;99.90
28677;DHT22;15858;48.338;11.078;2023-06-14T01:32:54;12.50;99.90
28677;DHT22;15858;48.338;11.078;2023-06-14T01:35:22;12.40;99.90
28677;DHT22;15858;48.338;11.078;2023-06-14T01:37:49;12.40;99.90
28677;DHT22;15858;48.338;11.078;2023-06-14T01:40:18;12.40;99.90
28677;DHT22;15858;48.338;11.078;2023-06-14T01:42:47;12.30;99.90
28677;DHT22;15858;48.338;11.078;2023-06-14T01:45:16;12.30;99.90
28677;DHT22;15858;48.338;11.078;2023-06-14T01:47:44;12.30;99.90
28677;DHT22;15858;48.338;11.078;2023-06-14T01:50:11;12.30;99.90
28677;DHT22;15858;48.338;11.078;2023-06-14T01:52:38;12.30;99.90
28677;DHT22;15858;48.338;11.078;2023-06-14T01:55:06;12.40;99.90
28677;DHT22;15858;48.338;11.078;2023-06-14T01:57:32;12.30;99.90
28677;DHT22;15858;48.338;11.078;2023-06-14T01:59:59;12.30;99.90
28677;DHT22;15858;48.338;11.078;2023-06-14T02:02:26;12.30;99.90
28677;DHT22;15858;48.338;11.078;2023-06-14T02:04:52;12.20;99.90
28677;DHT22;15858;48.338;11.078;2023-06-14T02:07:19;12.20;99.90
28677;DHT22;15858;48.338;11.078;2023-06-14T02:09:46;12.20;99.90
28677;DHT22;15858;48.338;11.078;2023-06-14T02:12:12;12.20;99.90
28677;DHT22;15858;48.338;11.078;2023-06-14T02:14:39;12.10;99.90
28677;DHT22;15858;48.338;11.078;2023-06-14T02:17:05;12.20;99.90
28677;DHT22;15858;48.338;11.078;2023-06-14T02:19:32;12.10;99.90
28677;DHT22;15858;48.338;11.078;2023-06-14T02:21:59;12.00;99.90
28677;DHT22;15858;48.338;11.078;2023-06-14T02:24:25;11.90;99.90
28677;DHT22;15858;48.338;11.078;2023-06-14T02:26:52;11.80;99.90
28677;DHT22;15858;48.338;11.078;2023-06-14T02:29:19;11.80;99.90
28677;DHT22;15858;48.338;11.078;2023-06-14T02:31:45;11.80;99.90
28677;DHT22;15858;48.338;11.078;2023-06-14T02:34:12;11.80;99.90
28677;DHT22;15858;48.338;11.078;2023-06-14T02:36:39;11.70;99.90
28677;DHT22;15858;48.338;11.078;2023-06-14T02:39:05;11.70;99.90
28677;DHT22;15858;48.338;11.078;2023-06-14T02:41:32;11.60;99.90
28677;DHT22;15858;48.338;11.078;2023-06-14T02:43:58;11.60;99.90
28677;DHT22;15858;48.338;11.078;2023-06-14T02:46:25;11.60;99.90
28677;DHT22;15858;48.338;11.078;2023-06-14T02:48:52;11.50;99.90
28677;DHT22;15858;48.338;11.078;2023-06-14T02:51:19;11.50;99.90
28677;DHT22;15858;48.338;11.078;2023-06-14T02:53:45;11.50;99.90
28677;DHT22;15858;48.338;11.078;2023-06-14T02:56:12;11.50;99.90
28677;DHT22;15858;48.338;11.078;2023-06-14T02:58:38;11.40;99.90
28677;DHT22;15858;48.338;11.078;2023-06-14T03:01:05;11.40;99.90
28677;DHT22;15858;48.338;11.078;2023-06-14T03:03:32;11.40;99.90
28677;DHT22;15858;48.338;11.078;2023-06-14T03:05:59;11.40;99.90
28677;DHT22;15858;48.338;11.078;2023-06-14T03:08:26;11.30;99.90
28677;DHT22;15858;48.338;11.078;2023-06-14T03:10:53;11.20;99.90
28677;DHT22;15858;48.338;11.078;2023-06-14T03:13:19;11.20;99.90
28677;DHT22;15858;48.338;11.078;2023-06-14T03:15:46;11.10;99.90
28677;DHT22;15858;48.338;11.078;2023-06-14T03:18:13;11.20;99.90
28677;DHT22;15858;48.338;11.078;2023-06-14T03:20:40;11.30;99.90
28677;DHT22;15858;48.338;11.078;2023-06-14T03:23:07;11.20;99.90
28677;DHT22;15858;48.338;11.078;2023-06-14T03:25:33;11.30;99.90
28677;DHT22;15858;48.338;11.078;2023-06-14T03:28:04;11.30;99.90
28677;DHT22;15858;48.338;11.078;2023-06-14T03:30:31;11.30;99.90
28677;DHT22;15858;48.338;11.078;2023-06-14T03:32:58;11.30;99.90
28677;DHT22;15858;48.338;11.078;2023-06-14T03:35:25;11.30;99.90
28677;DHT22;15858;48.338;11.078;2023-06-14T03:37:51;11.20;99.90
28677;DHT22;15858;48.338;11.078;2023-06-14T03:40:18;11.20;99.90
28677;DHT22;15858;48.338;11.078;2023-06-14T03:42:45;11.20;99.90
28677;DHT22;15858;48.338;11.078;2023-06-14T03:45:12;11.20;99.90
28677;DHT22;15858;48.338;11.078;2023-06-14T03:47:39;11.20;99.90
28677;DHT22;15858;48.338;11.078;2023-06-14T03:50:06;11.20;99.90
28677;DHT22;15858;48.338;11.078;2023-06-14T03:52:33;11.10;99.90
28677;DHT22;15858;48.338;11.078;2023-06-14T03:54:59;10.90;99.90
28677;DHT22;15858;48.338;11.078;2023-06-14T03:57:29;10.90;99.90
28677;DHT22;15858;48.338;11.078;2023-06-14T03:59:56;10.90;99.90
28677;DHT22;15858;48.338;11.078;2023-06-14T04:02:23;10.90;99.90
28677;DHT22;15858;48.338;11.078;2023-06-14T04:04:50;10.90;99.90
28677;DHT22;15858;48.338;11.078;2023-06-14T04:07:17;11.10;99.90
28677;DHT22;15858;48.338;11.078;2023-06-14T04:09:43;11.20;99.90
28677;DHT22;15858;48.338;11.078;2023-06-14T04:12:10;11.20;99.90
28677;DHT22;15858;48.338;11.078;2023-06-14T04:14:37;11.20;99.90
28677;DHT22;15858;48.338;11.078;2023-06-14T04:17:04;11.30;99.90
28677;DHT22;15858;48.338;11.078;2023-06-14T04:19:31;11.40;99.90
28677;DHT22;15858;48.338;11.078;2023-06-14T04:21:59;11.50;99.90
28677;DHT22;15858;48.338;11.078;2023-06-14T04:24:25;11.60;99.90
28677;DHT22;15858;48.338;11.078;2023-06-14T04:26:52;11.80;99.90
28677;DHT22;15858;48.338;11.078;2023-06-14T04:29:19;11.90;99.90
28677;DHT22;15858;48.338;11.078;2023-06-14T04:31:46;12.00;99.90
28677;DHT22;15858;48.338;11.078;2023-06-14T04:34:13;12.10;99.90
28677;DHT22;15858;48.338;11.078;2023-06-14T04:36:39;12.20;99.90
28677;DHT22;15858;48.338;11.078;2023-06-14T04:39:06;12.20;99.90
28677;DHT22;15858;48.338;11.078;2023-06-14T04:41:32;12.40;99.90
28677;DHT22;15858;48.338;11.078;2023-06-14T04:44:00;12.50;99.90
28677;DHT22;15858;48.338;11.078;2023-06-14T04:46:28;12.60;99.90
28677;DHT22;15858;48.338;11.078;2023-06-14T04:48:55;12.60;99.90
28677;DHT22;15858;48.338;11.078;2023-06-14T04:51:21;12.50;99.90
28677;DHT22;15858;48.338;11.078;2023-06-14T04:53:48;12.50;99.90
28677;DHT22;15858;48.338;11.078;2023-06-14T04:56:15;12.50;99.90
28677;DHT22;15858;48.338;11.078;2023-06-14T04:58:42;12.50;99.90
28677;DHT22;15858;48.338;11.078;2023-06-14T05:01:08;12.60;99.90
28677;DHT22;15858;48.338;11.078;2023-06-14T05:03:35;12.80;99.90
28677;DHT22;15858;48.338;11.078;2023-06-14T05:06:01;13.00;99.90
28677;DHT22;15858;48.338;11.078;2023-06-14T05:08:28;13.10;99.90
28677;DHT22;15858;48.338;11.078;2023-06-14T05:10:55;13.30;99.90
28677;DHT22;15858;48.338;11.078;2023-06-14T05:13:21;13.40;99.90
28677;DHT22;15858;48.338;11.078;2023-06-14T05:15:48;13.50;99.90
28677;DHT22;15858;48.338;11.078;2023-06-14T05:18:15;13.60;99.90
28677;DHT22;15858;48.338;11.078;2023-06-14T05:20:41;13.80;99.90
28677;DHT22;15858;48.338;11.078;2023-06-14T05:23:09;13.90;99.90
28677;DHT22;15858;48.338;11.078;2023-06-14T05:25:35;14.00;99.90
28677;DHT22;15858;48.338;11.078;2023-06-14T05:28:02;14.10;99.90
28677;DHT22;15858;48.338;11.078;2023-06-14T05:30:29;14.10;99.90
28677;DHT22;15858;48.338;11.078;2023-06-14T05:32:55;14.10;99.90
28677;DHT22;15858;48.338;11.078;2023-06-14T05:35:22;14.10;99.90
28677;DHT22;15858;48.338;11.078;2023-06-14T05:37:49;14.30;99.90
28677;DHT22;15858;48.338;11.078;2023-06-14T05:40:15;14.40;99.90
28677;DHT22;15858;48.338;11.078;2023-06-14T05:42:42;14.40;99.90
28677;DHT22;15858;48.338;11.078;2023-06-14T05:45:09;14.50;99.90
28677;DHT22;15858;48.338;11.078;2023-06-14T05:47:35;14.60;99.90
28677;DHT22;15858;48.338;11.078;2023-06-14T05:50:02;14.70;99.90
28677;DHT22;15858;48.338;11.078;2023-06-14T05:52:29;14.80;99.90
28677;DHT22;15858;48.338;11.078;2023-06-14T05:54:55;14.80;99.90
28677;DHT22;15858;48.338;11.078;2023-06-14T05:57:22;14.90;99.90
28677;DHT22;15858;48.338;11.078;2023-06-14T05:59:49;15.10;99.90
28677;DHT22;15858;48.338;11.078;2023-06-14T06:02:15;15.20;99.90
28677;DHT22;15858;48.338;11.078;2023-06-14T06:04:42;15.30;99.90
28677;DHT22;15858;48.338;11.078;2023-06-14T06:07:09;15.50;99.90
28677;DHT22;15858;48.338;11.078;2023-06-14T06:09:35;15.50;99.90
28677;DHT22;15858;48.338;11.078;2023-06-14T06:12:02;15.60;99.90
28677;DHT22;15858;48.338;11.078;2023-06-14T06:14:29;15.60;99.90
28677;DHT22;15858;48.338;11.078;2023-06-14T06:16:55;15.70;99.90
28677;DHT22;15858;48.338;11.078;2023-06-14T06:19:22;15.80;99.90
28677;DHT22;15858;48.338;11.078;2023-06-14T06:21:49;15.90;99.90
28677;DHT22;15858;48.338;11.078;2023-06-14T06:24:15;15.90;99.90
28677;DHT22;15858;48.338;11.078;2023-06-14T06:26:42;16.10;99.90
28677;DHT22;15858;48.338;11.078;2023-06-14T06:29:09;16.20;99.90
28677;DHT22;15858;48.338;11.078;2023-06-14T06:31:35;16.30;99.90
28677;DHT22;15858;48.338;11.078;2023-06-14T06:34:02;16.40;99.90
28677;DHT22;15858;48.338;11.078;2023-06-14T06:36:29;16.40;99.90
28677;DHT22;15858;48.338;11.078;2023-06-14T06:38:55;16.60;99.90
28677;DHT22;15858;48.338;11.078;2023-06-14T06:41:22;16.70;99.90
28677;DHT22;15858;48.338;11.078;2023-06-14T06:43:48;16.80;99.90
28677;DHT22;15858;48.338;11.078;2023-06-14T06:46:15;16.80;99.50
28677;DHT22;15858;48.338;11.078;2023-06-14T06:48:42;17.10;99.60
28677;DHT22;15858;48.338;11.078;2023-06-14T06:51:09;17.20;98.70
28677;DHT22;15858;48.338;11.078;2023-06-14T06:53:35;17.20;98.70
28677;DHT22;15858;48.338;11.078;2023-06-14T06:56:08;17.30;98.20
28677;DHT22;15858;48.338;11.078;2023-06-14T06:58:35;17.30;97.70
28677;DHT22;15858;48.338;11.078;2023-06-14T07:01:01;17.40;98.20
28677;DHT22;15858;48.338;11.078;2023-06-14T07:03:28;17.60;96.90
28677;DHT22;15858;48.338;11.078;2023-06-14T07:05:54;17.60;97.70
28677;DHT22;15858;48.338;11.078;2023-06-14T07:08:21;17.70;97.00
28677;DHT22;15858;48.338;11.078;2023-06-14T07:10:48;17.70;98.00
28677;DHT22;15858;48.338;11.078;2023-06-14T07:13:14;17.80;97.30
28677;DHT22;15858;48.338;11.078;2023-06-14T07:15:41;18.00;97.40
28677;DHT22;15858;48.338;11.078;2023-06-14T07:18:08;18.00;96.90
28677;DHT22;15858;48.338;11.078;2023-06-14T07:20:34;18.00;97.40
28677;DHT22;15858;48.338;11.078;2023-06-14T07:23:01;18.20;96.70
28677;DHT22;15858;48.338;11.078;2023-06-14T07:25:28;18.40;96.00
28677;DHT22;15858;48.338;11.078;2023-06-14T07:27:54;18.30;96.50
28677;DHT22;15858;48.338;11.078;2023-06-14T07:30:21;18.40;97.20
28677;DHT22;15858;48.338;11.078;2023-06-14T07:32:48;18.40;96.10
28677;DHT22;15858;48.338;11.078;2023-06-14T07:35:15;18.50;96.90
28677;DHT22;15858;48.338;11.078;2023-06-14T07:37:42;18.50;96.70
28677;DHT22;15858;48.338;11.078;2023-06-14T07:40:09;18.70;96.40
28677;DHT22;15858;48.338;11.078;2023-06-14T07:42:36;18.80;95.90
28677;DHT22;15858;48.338;11.078;2023-06-14T07:45:03;18.90;95.60
28677;DHT22;15858;48.338;11.078;2023-06-14T07:47:30;19.10;95.70
28677;DHT22;15858;48.338;11.078;2023-06-14T07:49:57;19.20;95.40
28677;DHT22;15858;48.338;11.078;2023-06-14T07:52:24;19.30;94.00
28677;DHT22;15858;48.338;11.078;2023-06-14T07:54:51;19.50;94.30
28677;DHT22;15858;48.338;11.078;2023-06-14T07:57:17;19.60;94.80
28677;DHT22;15858;48.338;11.078;2023-06-14T07:59:44;19.60;94.30
28677;DHT22;15858;48.338;11.078;2023-06-14T08:02:11;19.80;93.20
28677;DHT22;15858;48.338;11.078;2023-06-14T08:04:38;19.90;92.40
28677;DHT22;15858;48.338;11.078;2023-06-14T08:07:05;20.00;93.90
28677;DHT22;15858;48.338;11.078;2023-06-14T08:09:34;20.00;94.00
28677;DHT22;15858;48.338;11.078;2023-06-14T08:12:01;20.10;92.90
28677;DHT22;15858;48.338;11.078;2023-06-14T08:14:27;20.10;92.30
28677;DHT22;15858;48.338;11.078;2023-06-14T08:16:54;20.20;93.10
28677;DHT22;15858;48.338;11.078;2023-06-14T08:19:20;20.30;92.80
28677;DHT22;15858;48.338;11.078;2023-06-14T08:21:47;20.40;91.70
28677;DHT22;15858;48.338;11.078;2023-06-14T08:24:14;20.50;91.00
28677;DHT22;15858;48.338;11.078;2023-06-14T08:26:41;20.50;90.70
28677;DHT22;15858;48.338;11.078;2023-06-14T08:29:07;20.60;90.90
28677;DHT22;15858;48.338;11.078;2023-06-14T08:31:34;20.70;89.10
28677;DHT22;15858;48.338;11.078;2023-06-14T08:34:01;20.90;88.90
28677;DHT22;15858;48.338;11.078;2023-06-14T08:36:30;21.00;85.20
28677;DHT22;15858;48.338;11.078;2023-06-14T08:38:57;21.20;83.10
28677;DHT22;15858;48.338;11.078;2023-06-14T08:41:24;21.20;83.80
28677;DHT22;15858;48.338;11.078;2023-06-14T08:43:51;21.30;85.10
28677;DHT22;15858;48.338;11.078;2023-06-14T08:46:18;21.40;83.10
28677;DHT22;15858;48.338;11.078;2023-06-14T08:48:51;21.50;82.70
28677;DHT22;15858;48.338;11.078;2023-06-14T08:51:19;21.50;81.90
28677;DHT22;15858;48.338;11.078;2023-06-14T08:53:46;21.50;80.20
28677;DHT22;15858;48.338;11.078;2023-06-14T08:56:14;21.60;79.30
28677;DHT22;15858;48.338;11.078;2023-06-14T08:58:44;21.70;80.40
28677;DHT22;15858;48.338;11.078;2023-06-14T09:01:11;21.80;78.00
28677;DHT22;15858;48.338;11.078;2023-06-14T09:03:38;22.00;73.30
28677;DHT22;15858;48.338;11.078;2023-06-14T09:06:05;21.80;72.90
28677;DHT22;15858;48.338;11.078;2023-06-14T09:08:31;21.80;76.60
28677;DHT22;15858;48.338;11.078;2023-06-14T09:10:58;21.90;75.10
28677;DHT22;15858;48.338;11.078;2023-06-14T09:13:26;22.00;76.90
28677;DHT22;15858;48.338;11.078;2023-06-14T09:15:57;22.00;76.30
28677;DHT22;15858;48.338;11.078;2023-06-14T09:18:35;22.10;72.60
28677;DHT22;15858;48.338;11.078;2023-06-14T09:21:01;22.10;73.70
28677;DHT22;15858;48.338;11.078;2023-06-14T09:23:28;22.20;73.50
28677;DHT22;15858;48.338;11.078;2023-06-14T09:25:55;22.30;71.30
28677;DHT22;15858;48.338;11.078;2023-06-14T09:28:27;22.30;72.30
28677;DHT22;15858;48.338;11.078;2023-06-14T09:30:54;22.50;73.50
28677;DHT22;15858;48.338;11.078;2023-06-14T09:33:21;22.60;71.90
28677;DHT22;15858;48.338;11.078;2023-06-14T09:35:51;22.60;69.10
28677;DHT22;15858;48.338;11.078;2023-06-14T09:38:18;22.50;68.80
28677;DHT22;15858;48.338;11.078;2023-06-14T09:40:45;22.50;70.70
28677;DHT22;15858;48.338;11.078;2023-06-14T09:43:11;22.70;67.20
28677;DHT22;15858;48.338;11.078;2023-06-14T09:45:39;22.60;69.00
28677;DHT22;15858;48.338;11.078;2023-06-14T09:48:07;22.60;67.00
28677;DHT22;15858;48.338;11.078;2023-06-14T09:50:34;22.60;66.60
28677;DHT22;15858;48.338;11.078;2023-06-14T09:53:11;22.70;67.40
28677;DHT22;15858;48.338;11.078;2023-06-14T09:55:40;22.90;67.00
28677;DHT22;15858;48.338;11.078;2023-06-14T09:58:08;23.00;63.30
28677;DHT22;15858;48.338;11.078;2023-06-14T10:00:36;23.00;63.30
28677;DHT22;15858;48.338;11.078;2023-06-14T10:03:21;23.20;64.00
28677;DHT22;15858;48.338;11.078;2023-06-14T10:05:48;23.30;63.30
28677;DHT22;15858;48.338;11.078;2023-06-14T10:08:19;23.40;63.40
28677;DHT22;15858;48.338;11.078;2023-06-14T10:10:46;23.40;61.80
28677;DHT22;15858;48.338;11.078;2023-06-14T10:13:14;23.00;63.20
28677;DHT22;15858;48.338;11.078;2023-06-14T10:16:00;22.60;63.50
28677;DHT22;15858;48.338;11.078;2023-06-14T10:23:28;22.90;64.00
28677;DHT22;15858;48.338;11.078;2023-06-14T10:25:58;23.10;64.30
28677;DHT22;15858;48.338;11.078;2023-06-14T10:28:25;23.20;63.80
28677;DHT22;15858;48.338;11.078;2023-06-14T10:33:32;23.00;59.00
28677;DHT22;15858;48.338;11.078;2023-06-14T10:39:09;22.70;64.30
28677;DHT22;15858;48.338;11.078;2023-06-14T10:41:38;23.00;60.40
28677;DHT22;15858;48.338;11.078;2023-06-14T10:46:54;23.30;58.80
28677;DHT22;15858;48.338;11.078;2023-06-14T10:49:41;23.40;58.30
28677;DHT22;15858;48.338;11.078;2023-06-14T10:52:09;23.40;58.20
28677;DHT22;15858;48.338;11.078;2023-06-14T10:54:36;23.40;57.10
28677;DHT22;15858;48.338;11.078;2023-06-14T10:57:06;23.40;57.80
28677;DHT22;15858;48.338;11.078;2023-06-14T10:59:33;23.50;58.50
28677;DHT22;15858;48.338;11.078;2023-06-14T11:02:27;23.70;57.30
28677;DHT22;15858;48.338;11.078;2023-06-14T11:05:08;23.50;55.00
28677;DHT22;15858;48.338;11.078;2023-06-14T11:07:53;23.50;56.60
28677;DHT22;15858;48.338;11.078;2023-06-14T11:10:26;23.80;57.40
28677;DHT22;15858;48.338;11.078;2023-06-14T11:13:00;23.50;52.90
28677;DHT22;15858;48.338;11.078;2023-06-14T11:15:34;23.50;54.80
28677;DHT22;15858;48.338;11.078;2023-06-14T11:18:03;23.70;53.60
28677;DHT22;15858;48.338;11.078;2023-06-14T11:20:34;23.70;56.00
28677;DHT22;15858;48.338;11.078;2023-06-14T11:23:01;23.80;55.70
28677;DHT22;15858;48.338;11.078;2023-06-14T11:25:29;24.00;54.10
28677;DHT22;15858;48.338;11.078;2023-06-14T11:27:56;23.70;53.20
28677;DHT22;15858;48.338;11.078;2023-06-14T11:30:23;23.70;53.80
28677;DHT22;15858;48.338;11.078;2023-06-14T11:32:51;23.50;54.70
28677;DHT22;15858;48.338;11.078;2023-06-14T11:35:24;23.70;55.90
28677;DHT22;15858;48.338;11.078;2023-06-14T11:37:55;23.90;55.80
28677;DHT22;15858;48.338;11.078;2023-06-14T11:40:26;23.90;54.10
28677;DHT22;15858;48.338;11.078;2023-06-14T11:43:01;24.20;55.30
28677;DHT22;15858;48.338;11.078;2023-06-14T11:45:29;24.30;55.60
28677;DHT22;15858;48.338;11.078;2023-06-14T11:47:57;23.60;55.20
28677;DHT22;15858;48.338;11.078;2023-06-14T11:50:25;23.50;55.80
28677;DHT22;15858;48.338;11.078;2023-06-14T11:52:59;23.70;56.00
28677;DHT22;15858;48.338;11.078;2023-06-14T11:55:26;23.90;55.60
28677;DHT22;15858;48.338;11.078;2023-06-14T11:57:56;24.10;56.60
28677;DHT22;15858;48.338;11.078;2023-06-14T12:00:26;24.30;57.50
28677;DHT22;15858;48.338;11.078;2023-06-14T12:02:56;24.60;57.30
28677;DHT22;15858;48.338;11.078;2023-06-14T12:05:24;24.70;55.70
28677;DHT22;15858;48.338;11.078;2023-06-14T12:07:58;24.80;57.50
28677;DHT22;15858;48.338;11.078;2023-06-14T12:10:25;24.80;55.30
28677;DHT22;15858;48.338;11.078;2023-06-14T12:12:57;24.90;55.50
28677;DHT22;15858;48.338;11.078;2023-06-14T12:15:24;25.00;55.70
28677;DHT22;15858;48.338;11.078;2023-06-14T12:17:51;24.90;54.40
28677;DHT22;15858;48.338;11.078;2023-06-14T12:20:17;25.00;54.90
28677;DHT22;15858;48.338;11.078;2023-06-14T12:22:51;25.20;53.60
28677;DHT22;15858;48.338;11.078;2023-06-14T12:25:34;25.40;52.40
28677;DHT22;15858;48.338;11.078;2023-06-14T12:28:08;25.40;53.00
28677;DHT22;15858;48.338;11.078;2023-06-14T12:30:36;25.40;54.30
28677;DHT22;15858;48.338;11.078;2023-06-14T12:33:06;25.50;53.30
28677;DHT22;15858;48.338;11.078;2023-06-14T12:35:33;25.40;52.00
28677;DHT22;15858;48.338;11.078;2023-06-14T12:38:00;25.70;53.20
28677;DHT22;15858;48.338;11.078;2023-06-14T12:40:27;25.50;54.20
28677;DHT22;15858;48.338;11.078;2023-06-14T12:42:53;25.50;53.10
28677;DHT22;15858;48.338;11.078;2023-06-14T12:45:20;25.50;52.70
28677;DHT22;15858;48.338;11.078;2023-06-14T12:47:47;25.40;51.80
28677;DHT22;15858;48.338;11.078;2023-06-14T12:50:13;25.30;53.00
28677;DHT22;15858;48.338;11.078;2023-06-14T12:52:41;25.20;51.80
28677;DHT22;15858;48.338;11.078;2023-06-14T12:55:07;25.00;51.10
28677;DHT22;15858;48.338;11.078;2023-06-14T12:57:34;25.10;51.90
28677;DHT22;15858;48.338;11.078;2023-06-14T13:00:01;25.30;50.30
28677;DHT22;15858;48.338;11.078;2023-06-14T13:02:27;25.40;49.40
28677;DHT22;15858;48.338;11.078;2023-06-14T13:04:54;25.40;48.30
28677;DHT22;15858;48.338;11.078;2023-06-14T13:07:21;25.40;50.50
28677;DHT22;15858;48.338;11.078;2023-06-14T13:09:48;25.60;51.10
28677;DHT22;15858;48.338;11.078;2023-06-14T13:12:15;25.60;52.10
28677;DHT22;15858;48.338;11.078;2023-06-14T13:14:42;25.60;51.80
28677;DHT22;15858;48.338;11.078;2023-06-14T13:17:09;25.90;53.00
28677;DHT22;15858;48.338;11.078;2023-06-14T13:19:36;25.90;53.10
28677;DHT22;15858;48.338;11.078;2023-06-14T13:22:03;26.10;50.80
28677;DHT22;15858;48.338;11.078;2023-06-14T13:24:30;26.20;51.20
28677;DHT22;15858;48.338;11.078;2023-06-14T13:26:57;26.20;52.80
28677;DHT22;15858;48.338;11.078;2023-06-14T13:29:24;26.10;53.50
28677;DHT22;15858;48.338;11.078;2023-06-14T13:31:51;26.00;51.20
28677;DHT22;15858;48.338;11.078;2023-06-14T13:34:18;25.70;51.10
28677;DHT22;15858;48.338;11.078;2023-06-14T13:36:45;25.50;49.80
28677;DHT22;15858;48.338;11.078;2023-06-14T13:39:12;25.00;51.30
28677;DHT22;15858;48.338;11.078;2023-06-14T13:41:38;25.10;50.30
28677;DHT22;15858;48.338;11.078;2023-06-14T13:44:05;25.00;49.60
28677;DHT22;15858;48.338;11.078;2023-06-14T13:46:32;25.10;52.00
28677;DHT22;15858;48.338;11.078;2023-06-14T13:48:58;25.00;50.20
28677;DHT22;15858;48.338;11.078;2023-06-14T13:51:25;25.20;51.10
28677;DHT22;15858;48.338;11.078;2023-06-14T13:53:53;25.40;49.40
28677;DHT22;15858;48.338;11.078;2023-06-14T13:56:19;25.50;51.00
28677;DHT22;15858;48.338;11.078;2023-06-14T13:58:46;25.50;50.80
28677;DHT22;15858;48.338;11.078;2023-06-14T14:01:13;25.40;52.10
28677;DHT22;15858;48.338;11.078;2023-06-14T14:03:39;25.60;51.60
28677;DHT22;15858;48.338;11.078;2023-06-14T14:06:06;25.40;50.20
28677;DHT22;15858;48.338;11.078;2023-06-14T14:08:33;25.20;50.40
28677;DHT22;15858;48.338;11.078;2023-06-14T14:11:01;25.00;49.50
28677;DHT22;15858;48.338;11.078;2023-06-14T14:13:28;24.60;50.70
28677;DHT22;15858;48.338;11.078;2023-06-14T14:15:55;24.30;50.00
28677;DHT22;15858;48.338;11.078;2023-06-14T14:18:21;24.30;51.00
28677;DHT22;15858;48.338;11.078;2023-06-14T14:20:48;24.30;51.40
28677;DHT22;15858;48.338;11.078;2023-06-14T14:23:15;24.40;51.40
28677;DHT22;15858;48.338;11.078;2023-06-14T14:25:42;24.30;52.20
28677;DHT22;15858;48.338;11.078;2023-06-14T14:28:08;24.20;51.90
28677;DHT22;15858;48.338;11.078;2023-06-14T14:30:35;24.10;51.90
28677;DHT22;15858;48.338;11.078;2023-06-14T14:33:02;24.10;51.50
28677;DHT22;15858;48.338;11.078;2023-06-14T14:35:28;24.10;53.20
28677;DHT22;15858;48.338;11.078;2023-06-14T14:37:55;24.20;55.30
28677;DHT22;15858;48.338;11.078;2023-06-14T14:40:22;24.30;55.30
28677;DHT22;15858;48.338;11.078;2023-06-14T14:42:48;24.40;55.70
28677;DHT22;15858;48.338;11.078;2023-06-14T14:45:15;24.30;53.20
28677;DHT22;15858;48.338;11.078;2023-06-14T14:47:42;24.20;54.30
28677;DHT22;15858;48.338;11.078;2023-06-14T14:50:08;24.20;54.20
28677;DHT22;15858;48.338;11.078;2023-06-14T14:52:35;24.20;54.20
28677;DHT22;15858;48.338;11.078;2023-06-14T14:55:02;24.00;53.90
28677;DHT22;15858;48.338;11.078;2023-06-14T14:57:29;23.90;53.90
28677;DHT22;15858;48.338;11.078;2023-06-14T14:59:56;23.80;54.50
28677;DHT22;15858;48.338;11.078;2023-06-14T15:02:22;23.70;54.00
28677;DHT22;15858;48.338;11.078;2023-06-14T15:04:49;23.80;53.60
28677;DHT22;15858;48.338;11.078;2023-06-14T15:07:16;23.70;54.50
28677;DHT22;15858;48.338;11.078;2023-06-14T15:09:42;23.70;54.20
28677;DHT22;15858;48.338;11.078;2023-06-14T15:12:10;23.90;54.20
28677;DHT22;15858;48.338;11.078;2023-06-14T15:14:36;23.90;53.40
28677;DHT22;15858;48.338;11.078;2023-06-14T15:17:03;23.90;53.00
28677;DHT22;15858;48.338;11.078;2023-06-14T15:19:33;24.00;52.20
28677;DHT22;15858;48.338;11.078;2023-06-14T15:22:00;24.10;51.70
28677;DHT22;15858;48.338;11.078;2023-06-14T15:24:27;24.20;52.80
28677;DHT22;15858;48.338;11.078;2023-06-14T15:27:09;24.30;54.60
28677;DHT22;15858;48.338;11.078;2023-06-14T15:29:36;24.50;53.50
28677;DHT22;15858;48.338;11.078;2023-06-14T15:32:03;24.50;54.20
28677;DHT22;15858;48.338;11.078;2023-06-14T15:34:31;24.40;55.00
28677;DHT22;15858;48.338;11.078;2023-06-14T15:36:57;24.30;55.10